Time;durP1;ratioP1;P1;durP2;ratioP2;P2;SDS_P1;SDS_P2;PMS_P1;PMS_P2;Temp;Humidity;BMP_temperature;BMP_pressure;BME280_temperature;BME280_humidity;BME280_pressure;Samples;Min_cycle;Max_cycle;Signal;HPM_P1;HPM_P2
2022/12/19 00:02:01;;;;;;;19.48;8.32;;;-3.30;99.90;;;;;;4171015;28;20245;-77
2022/12/19 00:04:07;;;;;;;25.17;9.20;;;-3.30;99.90;;;;;;4171543;28;20256;-77
2022/12/19 00:06:10;;;;;;;24.17;9.73;;;-3.30;99.90;;;;;;4172754;28;20259;-77
2022/12/19 00:08:15;;;;;;;24.02;9.32;;;-3.30;99.90;;;;;;4152500;28;20219;-76
2022/12/19 00:10:18;;;;;;;28.13;9.98;;;-3.20;99.90;;;;;;4166682;28;20230;-77
2022/12/19 00:12:20;;;;;;;25.70;9.98;;;-3.30;99.90;;;;;;4164851;28;20634;-77
2022/12/19 00:14:22;;;;;;;28.17;10.27;;;-3.30;99.90;;;;;;4146643;28;20227;-77
2022/12/19 00:16:26;;;;;;;25.77;9.77;;;-3.30;99.90;;;;;;4167564;28;20316;-77
2022/12/19 00:18:28;;;;;;;28.27;9.95;;;-3.30;99.90;;;;;;4174511;28;20210;-77
2022/12/19 00:20:30;;;;;;;26.08;8.98;;;-3.10;99.90;;;;;;4157850;28;20199;-77
2022/12/19 00:22:32;;;;;;;24.10;9.70;;;-3.30;99.90;;;;;;4153327;28;20211;-77
2022/12/19 00:24:34;;;;;;;27.45;10.30;;;-2.90;99.90;;;;;;4159685;28;20253;-77
2022/12/19 00:26:39;;;;;;;23.02;9.43;;;-3.30;99.90;;;;;;4170146;28;20703;-77
2022/12/19 00:28:42;;;;;;;25.98;9.55;;;-3.30;99.90;;;;;;4171665;28;20222;-76
2022/12/19 00:30:44;;;;;;;22.05;9.52;;;-3.30;99.90;;;;;;4169119;28;20222;-77
2022/12/19 00:32:46;;;;;;;24.77;9.40;;;-3.30;99.90;;;;;;4153765;28;20293;-77
2022/12/19 00:34:48;;;;;;;26.05;9.35;;;-3.30;99.90;;;;;;4172448;28;20206;-77
2022/12/19 00:36:50;;;;;;;25.73;8.93;;;-3.10;99.90;;;;;;4168108;28;20247;-77
2022/12/19 00:38:54;;;;;;;21.20;9.45;;;-3.30;99.90;;;;;;4183152;28;20663;-77
2022/12/19 00:40:55;;;;;;;21.92;8.75;;;-3.30;99.90;;;;;;4152100;28;20238;-77
2022/12/19 00:42:59;;;;;;;25.77;10.00;;;-3.30;99.90;;;;;;4165862;28;20207;-77
2022/12/19 00:45:04;;;;;;;25.02;9.73;;;-3.30;99.90;;;;;;4172364;28;20724;-77
2022/12/19 00:47:06;;;;;;;26.60;9.88;;;-3.30;99.90;;;;;;4151828;28;20219;-77
2022/12/19 00:49:08;;;;;;;20.58;8.32;;;-3.30;99.90;;;;;;4171080;28;20214;-77
2022/12/19 00:51:12;;;;;;;22.85;9.07;;;-3.20;99.90;;;;;;4172110;28;20200;-77
2022/12/19 00:53:14;;;;;;;23.27;9.23;;;-3.20;99.90;;;;;;4177018;28;20207;-78
2022/12/19 00:55:16;;;;;;;24.08;9.32;;;-3.30;99.90;;;;;;4170222;28;20195;-77
2022/12/19 00:57:18;;;;;;;25.27;9.88;;;-3.20;99.90;;;;;;4174348;28;20620;-77
2022/12/19 00:59:21;;;;;;;23.83;8.95;;;-3.20;99.90;;;;;;4169816;28;20235;-77
2022/12/19 01:01:25;;;;;;;22.35;9.35;;;-3.20;99.90;;;;;;4167682;28;20643;-77
2022/12/19 01:03:27;;;;;;;22.85;9.55;;;-3.20;99.90;;;;;;4150279;28;20207;-77
2022/12/19 01:05:29;;;;;;;24.30;10.05;;;-3.20;99.90;;;;;;4159026;28;20274;-77
2022/12/19 01:07:31;;;;;;;22.23;8.98;;;-3.20;99.90;;;;;;4171018;28;20223;-77
2022/12/19 01:09:35;;;;;;;24.13;10.13;;;-3.20;99.90;;;;;;4175785;28;20249;-77
2022/12/19 01:13:56;;;;;;;25.70;9.88;;;-3.10;99.90;;;;;;4168185;28;20196;-77
2022/12/19 01:16:03;;;;;;;25.20;8.95;;;-3.10;99.90;;;;;;4175302;28;20289;-77
2022/12/19 01:18:05;;;;;;;24.00;9.43;;;-3.10;99.90;;;;;;4172605;28;20229;-77
2022/12/19 01:20:09;;;;;;;23.85;9.25;;;-3.10;99.90;;;;;;4175195;28;20210;-77
2022/12/19 01:22:11;;;;;;;24.10;9.35;;;-3.10;99.90;;;;;;4160646;28;20206;-77
2022/12/19 01:24:13;;;;;;;21.60;9.73;;;-3.00;99.90;;;;;;4169517;28;20215;-77
2022/12/19 01:26:14;;;;;;;27.63;9.48;;;-3.10;99.90;;;;;;4172531;28;20769;-77
2022/12/19 01:28:17;;;;;;;25.35;9.95;;;-3.10;99.90;;;;;;4174700;28;20264;-77
2022/12/19 01:30:19;;;;;;;29.65;11.05;;;-3.10;99.90;;;;;;4172837;28;20683;-77
2022/12/19 01:32:23;;;;;;;30.10;10.57;;;-3.10;99.90;;;;;;4169211;28;20668;-76
2022/12/19 01:34:25;;;;;;;24.42;9.70;;;-3.10;99.90;;;;;;4174874;28;20202;-77
2022/12/19 01:36:26;;;;;;;26.80;9.77;;;-3.10;99.90;;;;;;4176806;28;20240;-77
2022/12/19 01:38:28;;;;;;;21.92;9.02;;;-3.10;99.90;;;;;;4176632;28;20294;-77
2022/12/19 01:40:30;;;;;;;23.35;9.25;;;-3.10;99.90;;;;;;4176468;28;20704;-77
2022/12/19 01:42:36;;;;;;;22.77;9.48;;;-3.10;99.90;;;;;;4171310;28;20788;-77
2022/12/19 01:44:38;;;;;;;22.35;9.02;;;-3.10;99.90;;;;;;4177210;28;20214;-77
2022/12/19 01:46:42;;;;;;;21.63;8.68;;;-3.00;99.90;;;;;;4175215;28;20602;-77
2022/12/19 01:48:46;;;;;;;21.23;8.60;;;-3.00;99.90;;;;;;4171871;28;20305;-78
2022/12/19 01:50:57;;;;;;;22.63;8.73;;;-3.10;99.90;;;;;;4167539;28;20233;-77
2022/12/19 01:53:00;;;;;;;21.17;8.20;;;-3.00;99.90;;;;;;4171143;28;20463;-78
2022/12/19 01:55:02;;;;;;;18.48;8.18;;;-3.00;99.90;;;;;;4174389;28;20210;-78
2022/12/19 01:57:08;;;;;;;21.25;7.72;;;-3.00;99.90;;;;;;4176831;28;20239;-78
2022/12/19 01:59:14;;;;;;;17.27;7.35;;;-3.00;99.90;;;;;;4179192;28;20237;-77
2022/12/19 02:01:18;;;;;;;24.40;8.15;;;-3.00;99.90;;;;;;4175069;28;20241;-79
2022/12/19 02:03:24;;;;;;;18.83;8.07;;;-2.90;99.90;;;;;;4179684;28;20298;-78
2022/12/19 02:05:28;;;;;;;21.25;8.02;;;-2.90;99.90;;;;;;4172781;28;20261;-78
2022/12/19 02:07:32;;;;;;;21.67;8.25;;;-2.90;99.90;;;;;;4178121;28;20701;-78
2022/12/19 02:09:35;;;;;;;24.67;8.48;;;-2.80;99.90;;;;;;4174398;28;20207;-77
2022/12/19 02:11:38;;;;;;;22.27;7.63;;;-2.80;99.90;;;;;;4171141;28;20234;-77
2022/12/19 02:13:40;;;;;;;22.27;8.48;;;-2.70;99.90;;;;;;4166579;28;20659;-78
2022/12/19 02:15:49;;;;;;;18.13;7.57;;;-2.70;99.90;;;;;;4170687;28;20257;-77
2022/12/19 02:18:06;;;;;;;21.33;8.07;;;-2.70;99.90;;;;;;4174243;28;20464;-77
2022/12/19 02:21:04;;;;;;;18.30;6.80;;;-2.60;99.90;;;;;;4173279;28;20230;-78
2022/12/19 02:23:28;;;;;;;19.50;7.57;;;-2.50;99.90;;;;;;4168571;28;20555;-77
2022/12/19 02:25:50;;;;;;;16.70;7.17;;;-2.50;99.90;;;;;;4179403;28;20472;-77
2022/12/19 02:28:24;;;;;;;21.83;7.33;;;-2.40;99.90;;;;;;4170658;28;20467;-77
2022/12/19 02:30:51;;;;;;;18.77;6.53;;;-2.30;99.90;;;;;;4162150;28;20492;-77
2022/12/19 02:33:00;;;;;;;18.77;6.50;;;-2.20;99.90;;;;;;4172297;28;21042;-77
2022/12/19 02:35:09;;;;;;;21.07;6.60;;;-2.20;99.90;;;;;;4173387;28;20943;-77
2022/12/19 02:37:17;;;;;;;18.40;6.80;;;-2.10;99.90;;;;;;4171836;28;20503;-77
2022/12/19 02:39:26;;;;;;;21.00;7.97;;;-2.00;99.90;;;;;;4170652;28;20457;-77
2022/12/19 02:41:42;;;;;;;18.70;7.13;;;-2.00;99.90;;;;;;4176915;28;20829;-77
2022/12/19 02:43:49;;;;;;;15.17;6.10;;;-2.00;99.90;;;;;;4170883;28;20461;-77
2022/12/19 02:45:53;;;;;;;18.60;6.97;;;-1.90;99.90;;;;;;4176931;28;20464;-77
2022/12/19 02:47:55;;;;;;;16.57;6.90;;;-1.80;99.90;;;;;;4173442;28;20464;-77
2022/12/19 02:49:57;;;;;;;22.23;6.80;;;-1.70;99.90;;;;;;4174493;28;21011;-78
2022/12/19 02:52:09;;;;;;;21.23;6.77;;;-1.60;99.90;;;;;;4173784;28;20540;-77
2022/12/19 02:54:11;;;;;;;14.40;6.27;;;-1.50;99.90;;;;;;4179061;28;20479;-76
2022/12/19 02:56:27;;;;;;;18.17;6.60;;;-1.40;99.90;;;;;;4171737;28;20555;-77
2022/12/19 02:58:50;;;;;;;19.90;5.87;;;-1.30;99.90;;;;;;4171473;28;20453;-77
2022/12/19 03:01:08;;;;;;;16.57;5.83;;;-1.10;99.90;;;;;;4175649;28;20472;-77
2022/12/19 03:03:14;;;;;;;18.93;6.70;;;-1.00;99.90;;;;;;4164467;28;20545;-77
2022/12/19 03:05:27;;;;;;;16.43;6.80;;;-1.00;99.90;;;;;;4168055;28;20442;-77
2022/12/19 03:07:35;;;;;;;21.07;6.87;;;-0.90;99.90;;;;;;4169465;28;20511;-77
2022/12/19 03:09:51;;;;;;;18.43;6.70;;;-0.90;99.90;;;;;;4172399;28;20512;-77
2022/12/19 03:12:00;;;;;;;18.73;6.70;;;-0.80;99.90;;;;;;4172899;28;20529;-77
2022/12/19 03:14:06;;;;;;;19.90;6.73;;;-0.80;99.90;;;;;;4173752;28;20549;-77
2022/12/19 03:16:10;;;;;;;17.90;7.50;;;-0.70;99.90;;;;;;4168421;28;20511;-77
2022/12/19 03:18:13;;;;;;;16.33;6.43;;;-0.70;99.90;;;;;;4151438;28;20544;-77
2022/12/19 03:20:22;;;;;;;19.87;7.43;;;-0.70;99.90;;;;;;4160151;28;21170;-77
2022/12/19 03:22:24;;;;;;;20.97;7.70;;;-0.70;99.90;;;;;;4167939;28;20908;-77
2022/12/19 03:24:27;;;;;;;21.23;7.33;;;-0.70;99.90;;;;;;4166316;28;20457;-76
2022/12/19 03:26:32;;;;;;;20.40;7.33;;;-0.70;99.90;;;;;;4183705;28;20507;-76
2022/12/19 03:28:41;;;;;;;18.83;7.23;;;-0.70;99.90;;;;;;4156017;28;20848;-77
2022/12/19 03:30:45;;;;;;;18.40;7.17;;;-0.70;99.90;;;;;;4170693;28;20580;-77
2022/12/19 03:32:49;;;;;;;21.77;7.50;;;-0.70;99.90;;;;;;4153113;28;20496;-77
2022/12/19 03:34:55;;;;;;;19.90;7.43;;;-0.80;99.90;;;;;;4167756;28;20448;-77
2022/12/19 03:37:01;;;;;;;22.90;7.53;;;-0.80;99.90;;;;;;4174227;28;20505;-77
2022/12/19 03:39:05;;;;;;;19.80;7.37;;;-0.80;99.90;;;;;;4174081;28;20545;-77
2022/12/19 03:41:10;;;;;;;19.20;7.00;;;-0.80;99.90;;;;;;4172743;28;20460;-77
2022/12/19 03:43:13;;;;;;;18.53;7.63;;;-0.80;99.90;;;;;;4156953;28;20497;-76
2022/12/19 03:45:20;;;;;;;20.37;7.87;;;-0.90;99.90;;;;;;4171120;28;20492;-77
2022/12/19 03:47:27;;;;;;;23.77;7.63;;;-0.90;99.90;;;;;;4152513;28;20505;-77
2022/12/19 03:49:31;;;;;;;21.83;8.07;;;-0.90;99.90;;;;;;4171913;28;20867;-77
2022/12/19 03:51:42;;;;;;;20.43;8.53;;;-0.90;99.90;;;;;;4171403;28;20485;-78
2022/12/19 03:53:54;;;;;;;21.63;7.30;;;-0.80;99.90;;;;;;4176058;28;20454;-76
2022/12/19 03:56:05;;;;;;;22.47;7.83;;;-0.80;99.90;;;;;;4164739;28;20466;-76
2022/12/19 03:58:12;;;;;;;20.53;7.20;;;-0.90;99.90;;;;;;4180793;28;20446;-77
2022/12/19 04:00:16;;;;;;;20.87;7.50;;;-0.80;99.90;;;;;;4160798;28;20453;-76
2022/12/19 04:02:19;;;;;;;23.77;8.17;;;-0.90;99.90;;;;;;4177826;28;20445;-76
2022/12/19 04:04:24;;;;;;;21.10;8.63;;;-0.80;99.90;;;;;;4159745;28;20929;-76
2022/12/19 04:06:30;;;;;;;19.43;7.67;;;-0.90;99.90;;;;;;4176227;28;20477;-76
2022/12/19 04:08:32;;;;;;;20.60;7.77;;;-0.90;99.90;;;;;;4173183;28;20443;-76
2022/12/19 04:10:40;;;;;;;19.57;7.73;;;-0.90;99.90;;;;;;4178475;28;20469;-76
2022/12/19 04:12:48;;;;;;;20.40;8.47;;;-0.90;99.90;;;;;;4172268;28;21022;-76
2022/12/19 04:14:51;;;;;;;19.77;8.03;;;-0.90;99.90;;;;;;4173083;28;20559;-76
2022/12/19 04:17:01;;;;;;;23.97;8.97;;;-0.90;99.90;;;;;;4179431;28;20472;-76
2022/12/19 04:19:08;;;;;;;22.53;7.93;;;-0.90;99.90;;;;;;4171458;28;20453;-76
2022/12/19 04:21:15;;;;;;;24.10;8.33;;;-0.90;99.90;;;;;;4173191;28;20454;-76
2022/12/19 04:23:23;;;;;;;19.97;7.60;;;-0.90;99.90;;;;;;4160561;28;20456;-76
2022/12/19 04:25:29;;;;;;;21.00;8.70;;;-0.90;99.90;;;;;;4174594;28;20493;-76
2022/12/19 04:27:32;;;;;;;20.73;8.57;;;-0.90;99.90;;;;;;4177077;28;20473;-76
2022/12/19 04:29:36;;;;;;;20.63;8.23;;;-0.90;99.90;;;;;;4154512;28;20460;-76
2022/12/19 04:31:39;;;;;;;22.30;8.47;;;-0.90;99.90;;;;;;4155077;28;20918;-76
2022/12/19 04:33:41;;;;;;;23.47;7.67;;;-1.00;99.90;;;;;;4172439;28;20459;-76
2022/12/19 04:35:43;;;;;;;22.23;9.40;;;-1.00;99.90;;;;;;4176530;28;20509;-76
2022/12/19 04:37:45;;;;;;;21.63;7.63;;;-0.90;99.90;;;;;;4177613;28;20556;-76
2022/12/19 04:39:48;;;;;;;23.50;8.67;;;-1.00;99.90;;;;;;4174435;28;20815;-76
2022/12/19 04:41:50;;;;;;;25.77;9.00;;;-1.00;99.90;;;;;;4174291;28;20448;-76
2022/12/19 04:43:52;;;;;;;25.97;9.13;;;-1.00;99.90;;;;;;4170428;28;20450;-75
2022/12/19 04:45:54;;;;;;;32.73;10.70;;;-1.00;99.90;;;;;;4180761;28;20799;-76
2022/12/19 04:47:55;;;;;;;23.80;8.50;;;-1.00;99.90;;;;;;4173418;28;20492;-76
2022/12/19 04:49:57;;;;;;;21.53;8.77;;;-1.10;99.90;;;;;;4171250;28;20493;-76
2022/12/19 04:51:59;;;;;;;25.87;8.47;;;-1.00;99.90;;;;;;4170926;28;20531;-76
2022/12/19 04:54:01;;;;;;;21.10;8.63;;;-1.10;99.90;;;;;;4154881;28;20986;-76
2022/12/19 04:56:06;;;;;;;24.70;8.10;;;-1.10;99.90;;;;;;4179968;28;20452;-76
2022/12/19 04:58:08;;;;;;;22.97;8.93;;;-1.10;99.90;;;;;;4174997;28;20464;-76
2022/12/19 05:00:11;;;;;;;26.53;8.53;;;-1.10;99.90;;;;;;4172259;28;20491;-76
2022/12/19 05:02:13;;;;;;;23.60;9.17;;;-1.10;99.90;;;;;;4175456;28;20449;-76
2022/12/19 05:04:15;;;;;;;26.13;9.00;;;-1.10;99.90;;;;;;4171683;28;20453;-76
2022/12/19 05:06:17;;;;;;;22.77;8.73;;;-1.10;99.90;;;;;;4159060;28;20483;-76
2022/12/19 05:08:19;;;;;;;24.13;8.53;;;-1.10;99.90;;;;;;4174693;28;20478;-76
2022/12/19 05:10:21;;;;;;;22.00;8.53;;;-1.10;99.90;;;;;;4175501;28;20530;-76
2022/12/19 05:12:24;;;;;;;26.93;8.43;;;-1.10;99.90;;;;;;4177896;28;20509;-76
2022/12/19 05:14:26;;;;;;;24.20;8.43;;;-1.10;99.90;;;;;;4172676;28;20934;-76
2022/12/19 05:16:28;;;;;;;22.53;8.17;;;-1.10;99.90;;;;;;4170693;28;20479;-76
2022/12/19 05:18:31;;;;;;;23.43;9.17;;;-1.10;99.90;;;;;;4176042;28;20453;-76
2022/12/19 05:20:33;;;;;;;23.93;8.27;;;-1.10;99.90;;;;;;4176541;28;20558;-76
2022/12/19 05:22:35;;;;;;;23.73;8.73;;;-1.10;99.90;;;;;;4168968;28;20457;-76
2022/12/19 05:24:37;;;;;;;24.93;8.87;;;-1.10;99.90;;;;;;4150700;28;20493;-76
2022/12/19 05:26:38;;;;;;;23.07;9.37;;;-1.10;99.90;;;;;;4172199;28;21053;-76
2022/12/19 05:28:42;;;;;;;23.73;8.37;;;-1.10;99.90;;;;;;4170718;28;20549;-75
2022/12/19 05:30:44;;;;;;;23.20;8.63;;;-1.10;99.90;;;;;;4167675;28;20480;-76
2022/12/19 05:32:46;;;;;;;21.20;8.43;;;-1.10;99.90;;;;;;4177487;28;20472;-76
2022/12/19 05:34:47;;;;;;;28.17;9.07;;;-1.10;99.90;;;;;;4172927;28;20477;-76
2022/12/19 05:36:49;;;;;;;24.20;9.07;;;-1.00;99.90;;;;;;4172992;28;20508;-76
2022/12/19 05:38:51;;;;;;;26.40;8.70;;;-1.10;99.90;;;;;;4176511;28;21062;-76
2022/12/19 05:40:53;;;;;;;23.83;8.53;;;-1.00;99.90;;;;;;4172483;28;20456;-76
2022/12/19 05:42:55;;;;;;;28.37;8.87;;;-1.00;99.90;;;;;;4178610;28;20484;-76
2022/12/19 05:44:58;;;;;;;30.70;9.60;;;-1.00;99.90;;;;;;4170085;28;20912;-76
2022/12/19 05:47:02;;;;;;;21.20;8.90;;;-1.00;99.90;;;;;;4168607;28;20536;-75
2022/12/19 05:49:04;;;;;;;26.27;9.00;;;-1.00;99.90;;;;;;4160124;28;20497;-75
2022/12/19 05:51:06;;;;;;;25.37;8.77;;;-1.00;99.90;;;;;;4168538;28;20481;-74
2022/12/19 05:53:08;;;;;;;23.23;8.70;;;-1.00;99.90;;;;;;4158631;28;20461;-75
2022/12/19 05:55:11;;;;;;;25.63;8.80;;;-1.10;99.90;;;;;;4175269;28;20899;-75
2022/12/19 05:57:12;;;;;;;23.43;9.30;;;-1.00;99.90;;;;;;4155118;28;20473;-75
2022/12/19 05:59:14;;;;;;;27.83;9.53;;;-1.00;99.90;;;;;;4167642;28;20501;-75
2022/12/19 06:01:20;;;;;;;23.27;9.33;;;-1.00;99.90;;;;;;4175552;28;20485;-76
2022/12/19 06:03:22;;;;;;;25.60;9.37;;;-1.00;99.90;;;;;;4169237;28;21004;-75
2022/12/19 06:05:23;;;;;;;25.63;8.87;;;-1.00;99.90;;;;;;4170886;28;20963;-75
2022/12/19 06:07:25;;;;;;;20.47;9.00;;;-1.10;99.90;;;;;;4171963;28;20564;-75
2022/12/19 06:09:28;;;;;;;25.47;8.97;;;-1.00;99.90;;;;;;4170107;28;20488;-75
2022/12/19 06:11:30;;;;;;;23.77;8.53;;;-0.90;99.90;;;;;;4158145;28;20484;-76
2022/12/19 06:13:33;;;;;;;28.70;9.50;;;-0.90;99.90;;;;;;4156777;28;20526;-76
2022/12/19 06:15:34;;;;;;;21.63;8.37;;;-0.90;99.90;;;;;;4170771;28;20508;-75
2022/12/19 06:17:38;;;;;;;32.30;9.30;;;-0.90;99.90;;;;;;4169835;28;20896;-76
2022/12/19 06:19:40;;;;;;;24.87;8.77;;;-0.90;99.90;;;;;;4157997;28;20501;-75
2022/12/19 06:21:43;;;;;;;22.13;8.47;;;-0.90;99.90;;;;;;4170998;28;21011;-75
2022/12/19 06:23:46;;;;;;;25.57;9.27;;;-0.90;99.90;;;;;;4169825;28;20545;-75
2022/12/19 06:25:48;;;;;;;30.37;9.17;;;-0.90;99.90;;;;;;4166620;28;20971;-75
2022/12/19 06:27:50;;;;;;;22.37;8.83;;;-0.90;99.90;;;;;;4169250;28;20498;-75
2022/12/19 06:29:52;;;;;;;24.83;9.40;;;-0.90;99.90;;;;;;4168384;28;20458;-76
2022/12/19 06:31:54;;;;;;;24.90;8.60;;;-0.90;99.90;;;;;;4166375;28;21361;-75
2022/12/19 06:33:57;;;;;;;25.57;9.07;;;-0.90;99.90;;;;;;4163302;28;20467;-75
2022/12/19 06:35:59;;;;;;;24.57;9.10;;;-0.90;99.90;;;;;;4170759;28;20458;-75
2022/12/19 06:38:01;;;;;;;22.50;8.23;;;-0.90;99.90;;;;;;4166426;28;20871;-76
2022/12/19 06:40:07;;;;;;;24.97;9.30;;;-0.80;99.90;;;;;;4165241;28;20835;-76
2022/12/19 06:42:28;;;;;;;23.60;8.33;;;-0.90;99.90;;;;;;4169765;28;20886;-76
2022/12/19 06:44:31;;;;;;;20.77;8.57;;;-0.80;99.90;;;;;;4169076;28;20447;-77
2022/12/19 06:46:34;;;;;;;21.63;8.70;;;-0.80;99.90;;;;;;4172928;28;20671;-77
2022/12/19 06:48:36;;;;;;;24.13;9.47;;;-0.70;99.90;;;;;;4169894;28;20965;-77
2022/12/19 06:50:39;;;;;;;21.57;8.90;;;-0.80;99.90;;;;;;4169490;28;20442;-77
2022/12/19 06:52:41;;;;;;;25.83;9.57;;;-0.80;99.90;;;;;;4171480;28;20811;-77
2022/12/19 06:54:43;;;;;;;21.77;8.60;;;-0.80;99.90;;;;;;4169140;28;20482;-77
2022/12/19 06:56:45;;;;;;;23.33;9.53;;;-0.70;99.90;;;;;;4170797;28;20556;-77
2022/12/19 06:58:47;;;;;;;24.73;8.67;;;-0.70;99.90;;;;;;4169159;28;20868;-77
2022/12/19 07:00:49;;;;;;;28.00;10.07;;;-0.80;99.90;;;;;;4173652;28;21865;-77
2022/12/19 07:02:52;;;;;;;23.33;9.30;;;-0.70;99.90;;;;;;4174820;28;20465;-77
2022/12/19 07:05:01;;;;;;;26.00;9.23;;;-0.70;99.90;;;;;;4168756;28;20466;-77
2022/12/19 07:07:04;;;;;;;23.37;9.10;;;-0.70;99.90;;;;;;4153484;28;21028;-77
2022/12/19 07:09:06;;;;;;;27.53;9.60;;;-0.70;99.90;;;;;;4155740;28;21023;-77
2022/12/19 07:11:08;;;;;;;25.03;9.40;;;-0.70;99.90;;;;;;4175469;28;20441;-76
2022/12/19 07:13:10;;;;;;;30.60;9.73;;;-0.70;99.90;;;;;;4153683;28;20474;-76
2022/12/19 07:15:12;;;;;;;20.50;8.50;;;-0.70;99.90;;;;;;4173127;28;20480;-77
2022/12/19 07:17:14;;;;;;;27.83;9.97;;;-0.70;99.90;;;;;;4171746;28;20508;-76
2022/12/19 07:19:16;;;;;;;28.13;10.37;;;-0.70;99.90;;;;;;4172570;28;20451;-77
2022/12/19 07:21:18;;;;;;;28.60;10.53;;;-0.70;99.90;;;;;;4170346;28;20447;-77
2022/12/19 07:23:22;;;;;;;24.37;9.90;;;-0.60;99.90;;;;;;4168873;28;20446;-77
2022/12/19 07:25:24;;;;;;;24.13;9.30;;;-0.70;99.90;;;;;;4149536;28;20869;-77
2022/12/19 07:27:28;;;;;;;24.53;9.23;;;-0.60;99.90;;;;;;4176087;28;20505;-77
2022/12/19 07:29:29;;;;;;;28.73;9.77;;;-0.60;99.90;;;;;;4175527;28;20475;-77
2022/12/19 07:31:31;;;;;;;24.60;9.57;;;-0.60;99.90;;;;;;4170654;28;20556;-78
2022/12/19 07:33:33;;;;;;;22.77;8.87;;;-0.60;99.90;;;;;;4175211;28;21182;-76
2022/12/19 07:35:35;;;;;;;25.90;9.40;;;-0.60;99.90;;;;;;4154364;28;21750;-77
2022/12/19 07:37:37;;;;;;;24.57;9.97;;;-0.60;99.90;;;;;;4172698;28;21054;-76
2022/12/19 07:39:40;;;;;;;28.40;9.83;;;-0.50;99.90;;;;;;4171931;28;20452;-77
2022/12/19 07:41:42;;;;;;;27.23;10.20;;;-0.60;99.90;;;;;;4171722;28;20490;-77
2022/12/19 07:43:46;;;;;;;27.80;10.23;;;-0.60;99.90;;;;;;4170676;28;21150;-77
2022/12/19 07:45:54;;;;;;;26.40;9.30;;;-0.60;99.90;;;;;;4168218;28;20463;-77
2022/12/19 07:47:59;;;;;;;25.93;9.90;;;-0.60;99.90;;;;;;4176491;28;20457;-77
2022/12/19 07:50:01;;;;;;;24.30;9.13;;;-0.50;99.90;;;;;;4172884;28;20466;-78
2022/12/19 07:52:03;;;;;;;28.97;9.90;;;-0.50;99.90;;;;;;4173280;28;20490;-76
2022/12/19 07:54:05;;;;;;;26.90;9.53;;;-0.50;99.90;;;;;;4174706;28;20490;-78
2022/12/19 07:56:08;;;;;;;21.40;8.47;;;-0.50;99.90;;;;;;4173428;28;20454;-77
2022/12/19 07:58:10;;;;;;;28.23;10.03;;;-0.50;99.90;;;;;;4173532;28;20476;-78
2022/12/19 08:00:13;;;;;;;27.50;10.53;;;-0.40;99.90;;;;;;4172336;28;20461;-76
2022/12/19 08:02:15;;;;;;;24.63;9.50;;;-0.50;99.90;;;;;;4173153;28;20450;-77
2022/12/19 08:04:17;;;;;;;25.47;10.40;;;-0.40;99.90;;;;;;4158733;28;20979;-77
2022/12/19 08:06:20;;;;;;;26.03;9.37;;;-0.40;99.90;;;;;;4177317;28;20488;-77
2022/12/19 08:08:21;;;;;;;25.57;9.90;;;-0.40;99.90;;;;;;4170791;28;20481;-76
2022/12/19 08:10:23;;;;;;;25.63;10.47;;;-0.40;99.90;;;;;;4156867;28;20530;-76
2022/12/19 08:12:27;;;;;;;25.83;10.43;;;-0.40;99.90;;;;;;4169625;28;20484;-77
2022/12/19 08:14:28;;;;;;;26.60;10.30;;;-0.40;99.90;;;;;;4152789;28;20490;-77
2022/12/19 08:16:30;;;;;;;26.60;10.33;;;-0.30;99.90;;;;;;4170688;28;20525;-76
2022/12/19 08:18:32;;;;;;;31.07;11.50;;;-0.30;99.90;;;;;;4168070;28;20496;-77
2022/12/19 08:20:34;;;;;;;24.47;9.60;;;-0.30;99.90;;;;;;4171863;28;21223;-76
2022/12/19 08:22:36;;;;;;;25.37;9.63;;;-0.30;99.90;;;;;;4171426;28;21167;-77
2022/12/19 08:24:38;;;;;;;25.13;9.40;;;-0.20;99.90;;;;;;4156366;28;20453;-77
2022/12/19 08:26:40;;;;;;;28.27;11.37;;;-0.20;99.90;;;;;;4156138;28;20515;-77
2022/12/19 08:28:44;;;;;;;29.00;10.43;;;-0.20;99.90;;;;;;4171598;28;20536;-76
2022/12/19 08:30:45;;;;;;;26.20;10.33;;;-0.20;99.90;;;;;;4171721;28;20531;-76
2022/12/19 08:32:47;;;;;;;28.57;11.07;;;-0.20;99.90;;;;;;4173613;28;20487;-76
2022/12/19 08:34:50;;;;;;;27.53;10.97;;;-0.20;99.90;;;;;;4170535;28;20452;-75
2022/12/19 08:36:53;;;;;;;25.40;10.73;;;-0.20;99.90;;;;;;4172066;28;21078;-76
2022/12/19 08:38:57;;;;;;;29.83;10.27;;;-0.20;99.90;;;;;;4174680;28;20534;-76
2022/12/19 08:40:59;;;;;;;31.97;11.00;;;-0.10;99.90;;;;;;4156074;28;20846;-76
2022/12/19 08:43:01;;;;;;;26.80;10.20;;;-0.10;99.90;;;;;;4174217;28;20463;-76
2022/12/19 08:45:06;;;;;;;32.50;10.87;;;-0.10;99.90;;;;;;4162731;28;21046;-75
2022/12/19 08:47:09;;;;;;;25.03;10.53;;;-0.10;99.90;;;;;;4174422;28;20470;-75
2022/12/19 08:49:11;;;;;;;27.87;10.63;;;-0.10;99.90;;;;;;4174463;28;20490;-75
2022/12/19 08:51:15;;;;;;;37.90;11.00;;;-0.10;99.90;;;;;;4178512;28;20948;-74
2022/12/19 08:53:17;;;;;;;30.13;10.63;;;0.00;99.90;;;;;;4155398;28;20482;-76
2022/12/19 08:55:19;;;;;;;25.90;9.73;;;0.10;99.90;;;;;;4170573;28;20975;-76
2022/12/19 08:57:21;;;;;;;27.37;11.00;;;-0.10;99.90;;;;;;4176296;28;20483;-76
2022/12/19 08:59:23;;;;;;;27.20;10.67;;;-0.10;99.90;;;;;;4179250;28;20461;-75
2022/12/19 09:01:26;;;;;;;29.90;12.03;;;-0.10;99.90;;;;;;4160395;28;20457;-75
2022/12/19 09:03:28;;;;;;;29.37;10.57;;;0.10;99.90;;;;;;4176507;28;20481;-76
2022/12/19 09:05:30;;;;;;;27.27;10.73;;;0.00;99.90;;;;;;4180118;28;20482;-76
2022/12/19 09:07:34;;;;;;;29.80;11.77;;;0.00;99.90;;;;;;4175083;28;20583;-76
2022/12/19 09:09:36;;;;;;;30.33;11.67;;;0.00;99.90;;;;;;4157451;28;20493;-75
2022/12/19 09:11:38;;;;;;;30.77;11.03;;;0.00;99.90;;;;;;4175140;28;20457;-76
2022/12/19 09:13:41;;;;;;;30.97;11.43;;;0.00;99.90;;;;;;4173395;28;20867;-76
2022/12/19 09:15:43;;;;;;;31.40;11.50;;;0.00;99.90;;;;;;4170576;28;20478;-76
2022/12/19 09:17:46;;;;;;;30.47;11.63;;;0.00;99.90;;;;;;4157285;28;21026;-76
2022/12/19 09:19:48;;;;;;;31.27;11.47;;;0.00;99.90;;;;;;4168638;28;20546;-76
2022/12/19 09:21:50;;;;;;;26.83;10.70;;;0.00;99.90;;;;;;4169937;28;20453;-77
2022/12/19 09:23:54;;;;;;;33.23;12.73;;;0.00;99.90;;;;;;4168524;28;20462;-76
2022/12/19 09:25:57;;;;;;;31.63;11.73;;;0.00;99.90;;;;;;4175336;28;20484;-76
2022/12/19 09:27:59;;;;;;;31.60;11.37;;;0.00;99.90;;;;;;4171035;28;20446;-76
2022/12/19 09:30:01;;;;;;;29.53;11.37;;;0.00;99.90;;;;;;4173789;28;20488;-76
2022/12/19 09:32:03;;;;;;;27.23;10.70;;;0.00;99.90;;;;;;4173867;28;20537;-76
2022/12/19 09:34:06;;;;;;;33.63;12.70;;;0.00;99.90;;;;;;4166442;28;20516;-78
2022/12/19 09:36:12;;;;;;;31.17;11.50;;;0.00;99.90;;;;;;4171359;28;20494;-79
2022/12/19 09:38:14;;;;;;;33.37;11.63;;;0.00;99.90;;;;;;4175465;28;20446;-77
2022/12/19 09:40:17;;;;;;;28.50;11.67;;;0.00;99.90;;;;;;4176291;28;20497;-80
2022/12/19 09:42:54;;;;;;;32.33;12.20;;;0.10;99.90;;;;;;4168716;28;20571;-78
2022/12/19 09:45:11;;;;;;;29.93;11.20;;;0.00;99.90;;;;;;4136683;28;20483;-75
2022/12/19 09:47:17;;;;;;;30.20;11.57;;;0.00;99.90;;;;;;4172271;28;20479;-75
2022/12/19 09:49:23;;;;;;;32.30;11.40;;;0.10;99.90;;;;;;4172381;28;20498;-75
2022/12/19 09:51:34;;;;;;;32.27;12.43;;;0.10;99.90;;;;;;4159940;28;20458;-76
2022/12/19 09:53:44;;;;;;;28.33;11.10;;;0.10;99.90;;;;;;4170498;28;20828;-75
2022/12/19 09:55:47;;;;;;;29.63;11.77;;;0.10;99.90;;;;;;4173005;28;21181;-75
2022/12/19 09:57:55;;;;;;;38.87;12.93;;;0.00;99.90;;;;;;4172228;28;20489;-76
2022/12/19 10:00:01;;;;;;;32.20;12.57;;;0.10;99.90;;;;;;4166101;28;20457;-76
2022/12/19 10:02:14;;;;;;;32.23;12.27;;;0.10;99.90;;;;;;4170731;28;20455;-76
2022/12/19 10:04:18;;;;;;;35.87;13.23;;;0.10;99.90;;;;;;4171943;28;21185;-76
2022/12/19 10:06:23;;;;;;;38.83;13.53;;;0.00;99.90;;;;;;4176666;28;20494;-76
2022/12/19 10:08:30;;;;;;;33.67;12.53;;;0.00;99.90;;;;;;4156724;28;20440;-76
2022/12/19 10:10:40;;;;;;;39.40;13.43;;;0.00;99.90;;;;;;4172328;28;20451;-76
2022/12/19 10:13:09;;;;;;;35.17;12.30;;;0.10;99.90;;;;;;4170307;28;20880;-76
2022/12/19 10:15:19;;;;;;;35.53;12.67;;;0.00;99.90;;;;;;4179085;28;20454;-76
2022/12/19 10:17:29;;;;;;;35.67;12.57;;;0.00;99.90;;;;;;4154281;28;20479;-76
2022/12/19 10:19:44;;;;;;;38.87;14.43;;;0.00;99.90;;;;;;4168638;28;20513;-76
2022/12/19 10:21:53;;;;;;;32.30;12.67;;;0.10;99.90;;;;;;4172605;28;20868;-76
2022/12/19 10:24:25;;;;;;;37.97;12.77;;;0.10;99.90;;;;;;4169984;28;20538;-76
2022/12/19 10:26:34;;;;;;;35.17;12.57;;;0.00;99.90;;;;;;4168060;28;20556;-76
2022/12/19 10:28:50;;;;;;;39.20;14.20;;;0.10;99.90;;;;;;4154143;28;20467;-78
2022/12/19 10:31:03;;;;;;;35.07;13.03;;;0.00;99.90;;;;;;4171148;28;20448;-78
2022/12/19 10:33:17;;;;;;;33.57;12.60;;;0.10;99.90;;;;;;4153664;28;20482;-78
2022/12/19 10:35:22;;;;;;;37.90;13.80;;;0.10;99.90;;;;;;4150745;28;20463;-78
2022/12/19 10:37:28;;;;;;;36.03;13.37;;;0.10;99.90;;;;;;4170215;28;20472;-78
2022/12/19 10:39:35;;;;;;;39.23;13.40;;;0.10;99.90;;;;;;4159373;28;20470;-78
2022/12/19 10:41:43;;;;;;;38.87;13.67;;;0.00;99.90;;;;;;4174500;28;20457;-78
2022/12/19 10:44:02;;;;;;;40.43;13.93;;;0.10;99.90;;;;;;4149776;28;20485;-79